createdAt,value
2023-01-11T00:01:10.627Z,33.10
2023-01-11T00:03:39.309Z,31.50
2023-01-11T00:06:08.355Z,30.60
2023-01-11T00:08:37.387Z,33.80
2023-01-11T00:11:12.465Z,32.30
2023-01-11T00:13:41.521Z,35.30
2023-01-11T00:16:10.261Z,30.70
2023-01-11T00:18:39.199Z,34.10
2023-01-11T00:21:08.361Z,33.40
2023-01-11T00:23:37.627Z,32.90
2023-01-11T00:26:07.080Z,30.00
2023-01-11T00:28:35.953Z,33.90
2023-01-11T00:31:05.169Z,27.40
2023-01-11T00:33:34.552Z,31.80
2023-01-11T00:36:03.387Z,28.90
2023-01-11T00:38:44.120Z,32.30
2023-01-11T00:41:32.496Z,29.10
2023-01-11T00:44:20.011Z,28.60
2023-01-11T00:47:07.272Z,29.10
2023-01-11T00:49:36.221Z,32.50
2023-01-11T00:52:11.395Z,24.00
2023-01-11T00:54:41.008Z,27.20
2023-01-11T00:57:10.016Z,30.30
2023-01-11T00:59:39.599Z,27.80
2023-01-11T01:02:09.307Z,27.90
2023-01-11T01:04:38.690Z,26.40
2023-01-11T01:07:08.001Z,25.80
2023-01-11T01:09:36.698Z,27.30
2023-01-11T01:12:07.046Z,26.40
2023-01-11T01:14:36.307Z,35.60
2023-01-11T01:17:09.067Z,28.00
2023-01-11T01:19:38.690Z,30.80
2023-01-11T01:22:07.445Z,30.00
2023-01-11T01:24:36.268Z,30.70
2023-01-11T01:27:04.925Z,32.90
2023-01-11T01:29:33.680Z,30.50
2023-01-11T01:32:02.307Z,28.50
2023-01-11T01:34:31.030Z,35.80
2023-01-11T01:36:59.673Z,32.00
2023-01-11T01:39:28.466Z,26.80
2023-01-11T01:41:57.584Z,26.00
2023-01-11T01:44:45.102Z,29.20
2023-01-11T01:47:14.126Z,26.70
2023-01-11T01:49:43.405Z,23.00
2023-01-11T01:52:12.693Z,28.40
2023-01-11T01:54:43.502Z,28.90
2023-01-11T01:57:22.596Z,25.10
2023-01-11T01:59:52.518Z,29.80
2023-01-11T02:02:24.191Z,26.90
2023-01-11T02:04:56.257Z,24.20
2023-01-11T02:07:31.087Z,26.80
2023-01-11T02:10:04.013Z,27.50
2023-01-11T02:15:02.344Z,27.40
2023-01-11T02:17:31.011Z,29.60
2023-01-11T02:20:18.675Z,25.70
2023-01-11T02:23:05.764Z,24.80
2023-01-11T02:25:37.503Z,21.70
2023-01-11T02:28:25.319Z,22.50
2023-01-11T02:31:00.639Z,25.40
2023-01-11T02:33:38.765Z,20.40
2023-01-11T02:36:22.881Z,24.40
2023-01-11T02:38:56.091Z,19.40
2023-01-11T02:41:50.557Z,21.30
2023-01-11T02:44:42.717Z,23.10
2023-01-11T02:47:18.361Z,20.30
2023-01-11T02:49:54.613Z,21.80
2023-01-11T02:52:36.237Z,20.60
2023-01-11T02:55:07.686Z,20.10
2023-01-11T02:57:39.250Z,25.20
2023-01-11T03:00:08.437Z,22.00
2023-01-11T03:02:37.169Z,21.50
2023-01-11T03:05:11.388Z,16.30
2023-01-11T03:07:40.006Z,19.90
2023-01-11T03:10:08.684Z,21.40
2023-01-11T03:12:52.725Z,21.40
2023-01-11T03:15:44.813Z,22.60
2023-01-11T03:18:16.240Z,18.10
2023-01-11T03:20:49.138Z,19.20
2023-01-11T03:23:40.887Z,18.00
2023-01-11T03:26:39.071Z,22.00
2023-01-11T03:29:19.773Z,18.20
2023-01-11T03:31:52.900Z,18.60
2023-01-11T03:34:24.773Z,19.10
2023-01-11T03:36:56.611Z,15.60
2023-01-11T03:39:38.156Z,16.00
2023-01-11T03:42:08.219Z,16.90
2023-01-11T03:44:41.803Z,19.70
2023-01-11T03:47:12.868Z,20.90
2023-01-11T03:49:46.801Z,16.70
2023-01-11T03:52:16.607Z,18.40
2023-01-11T03:54:45.626Z,17.10
2023-01-11T03:57:14.298Z,14.80
2023-01-11T03:59:43.144Z,19.70
2023-01-11T04:02:19.132Z,18.70
2023-01-11T04:04:48.135Z,19.20
2023-01-11T04:07:18.699Z,18.30
2023-01-11T04:09:47.416Z,18.60
2023-01-11T04:12:16.321Z,18.10
2023-01-11T04:14:45.037Z,20.70
2023-01-11T04:17:13.890Z,18.90
2023-01-11T04:19:42.662Z,21.10
2023-01-11T04:22:11.375Z,19.90
2023-01-11T04:24:40.047Z,23.60
2023-01-11T04:27:08.781Z,20.10
2023-01-11T04:29:37.489Z,17.90
2023-01-11T04:32:06.192Z,18.90
2023-01-11T04:34:34.875Z,17.20
2023-01-11T04:37:03.624Z,20.00
2023-01-11T04:39:32.411Z,21.60
2023-01-11T04:42:19.587Z,20.70
2023-01-11T04:44:49.447Z,22.30
2023-01-11T04:47:19.251Z,17.00
2023-01-11T04:49:48.032Z,15.10
2023-01-11T04:52:17.868Z,15.50
2023-01-11T04:54:48.822Z,19.20
2023-01-11T04:57:17.836Z,17.20
2023-01-11T04:59:46.946Z,11.30
2023-01-11T05:02:15.885Z,15.40
2023-01-11T05:04:44.811Z,16.20
2023-01-11T05:07:13.711Z,14.50
2023-01-11T05:09:42.498Z,14.00
2023-01-11T05:12:11.177Z,15.20
2023-01-11T05:14:40.031Z,13.00
2023-01-11T05:17:12.767Z,15.30
2023-01-11T05:19:41.950Z,12.80
2023-01-11T05:22:10.658Z,13.10
2023-01-11T05:24:39.361Z,12.90
2023-01-11T05:27:08.102Z,14.40
2023-01-11T05:29:36.792Z,12.20
2023-01-11T05:32:05.849Z,14.40
2023-01-11T05:34:34.544Z,12.30
2023-01-11T05:37:03.211Z,9.30
2023-01-11T05:39:31.950Z,10.10
2023-01-11T05:42:00.658Z,11.40
2023-01-11T05:44:47.865Z,7.80
2023-01-11T05:47:16.643Z,9.20
2023-01-11T05:49:45.364Z,7.30
2023-01-11T05:52:14.121Z,8.50
2023-01-11T05:54:42.829Z,8.00
2023-01-11T05:57:12.023Z,8.60
2023-01-11T05:59:40.839Z,5.90
2023-01-11T06:02:09.568Z,7.50
2023-01-11T06:04:38.356Z,8.60
2023-01-11T06:07:09.891Z,8.90
2023-01-11T06:09:38.605Z,7.10
2023-01-11T06:12:07.423Z,8.70
2023-01-11T06:14:38.163Z,9.70
2023-01-11T06:17:07.149Z,7.60
2023-01-11T06:19:35.947Z,7.30
2023-01-11T06:22:04.647Z,6.20
2023-01-11T06:24:33.384Z,9.40
2023-01-11T06:27:02.043Z,5.60
2023-01-11T06:29:30.728Z,24.00
2023-01-11T06:31:59.504Z,6.80
2023-01-11T06:34:28.184Z,6.40
2023-01-11T06:36:56.994Z,7.90
2023-01-11T06:39:25.748Z,6.20
2023-01-11T06:41:54.451Z,6.70
2023-01-11T06:44:23.215Z,7.60
2023-01-11T06:46:51.902Z,5.90
2023-01-11T06:49:20.596Z,5.60
2023-01-11T06:51:49.975Z,6.90
2023-01-11T06:54:22.998Z,11.00
2023-01-11T06:56:51.867Z,5.20
2023-01-11T06:59:20.663Z,5.40
2023-01-11T07:01:49.351Z,6.60
2023-01-11T07:04:19.811Z,6.80
2023-01-11T07:06:48.526Z,6.50
2023-01-11T07:09:17.253Z,6.10
2023-01-11T07:11:46.229Z,8.40
2023-01-11T07:14:20.063Z,6.60
2023-01-11T07:16:48.743Z,6.70
2023-01-11T07:19:18.494Z,7.70
2023-01-11T07:21:47.170Z,6.40
2023-01-11T07:24:15.909Z,9.00
2023-01-11T07:26:44.800Z,6.50
2023-01-11T07:29:13.768Z,4.40
2023-01-11T07:31:42.606Z,6.40
2023-01-11T07:34:11.431Z,6.20
2023-01-11T07:36:40.365Z,7.80
2023-01-11T07:39:09.271Z,7.10
2023-01-11T07:41:56.910Z,8.10
2023-01-11T07:44:25.726Z,6.30
2023-01-11T07:46:54.693Z,6.20
2023-01-11T07:49:23.648Z,6.30
2023-01-11T07:51:52.377Z,8.00
2023-01-11T07:54:21.074Z,7.10
2023-01-11T07:56:51.054Z,5.30
2023-01-11T07:59:19.757Z,6.70
2023-01-11T08:01:48.427Z,6.50
2023-01-11T08:04:17.218Z,8.00
2023-01-11T08:06:45.942Z,7.60
2023-01-11T08:09:14.692Z,7.20
2023-01-11T08:12:01.984Z,5.50
2023-01-11T08:14:39.345Z,6.20
2023-01-11T08:17:09.656Z,4.10
2023-01-11T08:19:38.901Z,5.50
2023-01-11T08:22:07.958Z,4.50
2023-01-11T08:24:36.786Z,4.90
2023-01-11T08:27:05.640Z,7.80
2023-01-11T08:29:34.499Z,5.70
2023-01-11T08:32:03.306Z,4.60
2023-01-11T08:34:33.773Z,5.60
2023-01-11T08:37:03.257Z,6.90
2023-01-11T08:39:32.140Z,4.80
2023-01-11T08:42:03.006Z,5.70
2023-01-11T08:44:35.111Z,4.50
2023-01-11T08:47:04.082Z,4.40
2023-01-11T08:49:32.888Z,4.90
2023-01-11T08:52:01.601Z,4.40
2023-01-11T08:54:30.349Z,5.10
2023-01-11T08:56:59.070Z,5.70
2023-01-11T08:59:27.737Z,5.00
2023-01-11T09:01:56.659Z,4.60
2023-01-11T09:04:26.057Z,7.40
2023-01-11T09:06:54.869Z,4.70
2023-01-11T09:09:23.667Z,6.50
2023-01-11T09:11:55.165Z,5.00
2023-01-11T09:14:25.273Z,5.00
2023-01-11T09:16:54.525Z,4.90
2023-01-11T09:19:23.856Z,4.50
2023-01-11T09:21:53.351Z,5.50
2023-01-11T09:24:22.082Z,4.50
2023-01-11T09:26:50.831Z,3.70
2023-01-11T09:29:19.804Z,3.90
2023-01-11T09:31:48.580Z,3.90
2023-01-11T09:34:17.393Z,5.70
2023-01-11T09:36:48.705Z,5.60
2023-01-11T09:39:20.451Z,4.60
2023-01-11T09:42:08.988Z,4.60
2023-01-11T09:44:44.058Z,4.50
2023-01-11T09:47:17.285Z,4.50
2023-01-11T09:49:52.310Z,4.40
2023-01-11T09:52:39.521Z,4.60
2023-01-11T09:55:15.344Z,4.80
2023-01-11T09:57:52.058Z,4.40
2023-01-11T10:00:40.305Z,5.20
2023-01-11T10:03:32.996Z,4.20
2023-01-11T10:06:09.187Z,5.10
2023-01-11T10:18:28.616Z,5.50
2023-01-11T10:18:40.005Z,5.30
2023-01-11T10:20:28.911Z,5.50
2023-01-11T10:23:01.005Z,5.90
2023-01-11T10:25:42.633Z,5.90
2023-01-11T10:28:17.459Z,5.50
2023-01-11T10:30:52.178Z,5.30
2023-01-11T10:33:43.242Z,6.40
2023-01-11T10:36:34.664Z,5.60
2023-01-11T10:39:36.372Z,5.00
2023-01-11T10:42:10.447Z,5.20
2023-01-11T10:44:42.304Z,4.90
2023-01-11T10:47:16.453Z,5.50
2023-01-11T10:49:57.249Z,5.40
2023-01-11T10:52:25.988Z,6.10
2023-01-11T10:54:57.358Z,5.80
2023-01-11T10:57:35.010Z,7.00
2023-01-11T11:00:20.852Z,7.00
2023-01-11T11:02:49.580Z,6.20
2023-01-11T11:05:27.607Z,6.40
2023-01-11T11:07:56.301Z,5.90
2023-01-11T11:10:31.826Z,5.90
2023-01-11T11:13:19.328Z,5.10
2023-01-11T11:15:56.135Z,5.70
2023-01-11T11:18:25.243Z,6.30
2023-01-11T11:20:54.053Z,5.60
2023-01-11T11:23:24.408Z,6.00
2023-01-11T11:25:56.709Z,7.00
2023-01-11T11:28:25.518Z,6.70
2023-01-11T11:30:58.602Z,6.00
2023-01-11T11:33:39.924Z,7.80
2023-01-11T11:36:09.947Z,5.60
2023-01-11T11:38:40.383Z,7.10
2023-01-11T11:41:13.847Z,6.00
2023-01-11T11:43:44.218Z,6.20
2023-01-11T11:46:19.439Z,9.30
2023-01-11T11:49:10.748Z,7.60
2023-01-11T11:51:40.050Z,7.40
2023-01-11T11:54:27.003Z,7.40
2023-01-11T11:56:57.352Z,7.10
2023-01-11T11:59:28.751Z,6.80
2023-01-11T12:02:05.147Z,7.30
2023-01-11T12:04:48.627Z,6.50
2023-01-11T12:07:22.423Z,5.90
2023-01-11T12:09:57.493Z,7.80
2023-01-11T12:12:29.231Z,7.80
2023-01-11T12:15:06.635Z,8.60
2023-01-11T12:17:35.471Z,8.50
2023-01-11T12:20:24.175Z,7.40
2023-01-11T12:23:09.288Z,6.30
2023-01-11T12:25:45.844Z,7.50
2023-01-11T12:28:33.407Z,6.60
2023-01-11T12:31:02.180Z,6.10
2023-01-11T12:33:34.025Z,7.40
2023-01-11T12:36:08.508Z,7.80
2023-01-11T12:38:52.759Z,6.50
2023-01-11T12:41:50.275Z,7.30
2023-01-11T12:44:37.682Z,6.30
2023-01-11T12:47:24.941Z,6.50
2023-01-11T12:50:03.768Z,6.80
2023-01-11T12:52:44.741Z,7.10
2023-01-11T12:55:22.482Z,6.70
2023-01-11T12:58:01.011Z,5.40
2023-01-11T13:00:35.529Z,6.50
2023-01-11T13:03:19.317Z,5.40
2023-01-11T13:06:07.240Z,4.60
2023-01-11T13:08:40.746Z,9.30
2023-01-11T13:11:35.051Z,6.10
2023-01-11T13:14:13.526Z,6.60
2023-01-11T13:16:48.130Z,6.80
2023-01-11T13:19:21.273Z,7.60
2023-01-11T13:21:55.453Z,5.50
2023-01-11T13:24:27.250Z,7.00
2023-01-11T13:27:04.861Z,6.90
2023-01-11T13:29:33.583Z,5.70
2023-01-11T13:32:07.393Z,7.80
2023-01-11T13:34:40.625Z,6.20
2023-01-11T13:37:28.009Z,7.20
2023-01-11T13:40:35.327Z,6.90
2023-01-11T13:43:04.064Z,7.10
2023-01-11T13:45:37.606Z,7.00
2023-01-11T13:48:12.547Z,7.00
2023-01-11T13:51:01.551Z,6.10
2023-01-11T13:53:37.565Z,7.80
2023-01-11T13:56:18.675Z,8.50
2023-01-11T13:59:06.362Z,8.50
2023-01-11T14:01:38.234Z,7.50
2023-01-11T14:04:26.786Z,8.00
2023-01-11T14:07:08.756Z,8.40
2023-01-11T14:09:44.602Z,8.60
2023-01-11T14:12:34.696Z,8.90
2023-01-11T14:15:06.279Z,8.40
2023-01-11T14:17:38.395Z,8.40
2023-01-11T14:20:07.133Z,6.70
2023-01-11T14:22:38.762Z,9.10
2023-01-11T14:25:07.413Z,9.00
2023-01-11T14:27:39.125Z,7.50
2023-01-11T14:30:14.614Z,9.20
2023-01-11T14:32:56.092Z,8.80
2023-01-11T14:35:35.548Z,9.00
2023-01-11T14:38:16.310Z,11.80
2023-01-11T14:40:45.033Z,8.20
2023-01-11T14:43:27.548Z,11.10
2023-01-11T14:45:56.498Z,11.10
2023-01-11T14:48:34.075Z,13.00
2023-01-11T14:51:17.977Z,10.90
2023-01-11T14:53:52.566Z,15.10
2023-01-11T14:56:40.175Z,10.40
2023-01-11T14:59:26.194Z,14.70
2023-01-11T15:02:07.611Z,12.70
2023-01-11T15:04:38.175Z,13.50
2023-01-11T15:07:24.186Z,8.10
2023-01-11T15:09:56.313Z,9.00
2023-01-11T15:12:37.044Z,12.00
2023-01-11T15:15:18.610Z,10.90
2023-01-11T15:18:12.640Z,9.60
2023-01-11T15:21:13.777Z,9.60
2023-01-11T15:23:54.454Z,7.70
2023-01-11T15:26:23.985Z,11.10
2023-01-11T15:28:54.656Z,9.00
2023-01-11T15:31:34.266Z,8.00
2023-01-11T15:34:04.973Z,10.50
2023-01-11T15:36:54.441Z,11.10
2023-01-11T15:39:41.915Z,11.60
2023-01-11T15:42:16.655Z,9.30
2023-01-11T15:44:48.334Z,10.60
2023-01-11T15:47:32.376Z,11.20
2023-01-11T15:50:12.950Z,8.20
2023-01-11T15:52:50.811Z,9.40
2023-01-11T15:55:38.375Z,11.00
2023-01-11T15:58:23.997Z,11.50
2023-01-11T16:00:52.938Z,11.10
2023-01-11T16:03:29.042Z,10.90
2023-01-11T16:06:04.198Z,16.20
2023-01-11T16:08:38.145Z,11.90
2023-01-11T16:11:09.679Z,11.80
2023-01-11T16:13:42.523Z,12.90
2023-01-11T16:16:20.315Z,10.30
2023-01-11T16:19:00.476Z,12.80
2023-01-11T16:21:31.660Z,12.90
2023-01-11T16:24:10.831Z,13.70
2023-01-11T16:26:40.859Z,14.00
2023-01-11T16:29:25.892Z,12.90
2023-01-11T16:31:56.812Z,11.80
2023-01-11T16:34:27.387Z,15.90
2023-01-11T16:36:57.595Z,12.10
2023-01-11T16:39:28.967Z,14.50
2023-01-11T16:41:57.627Z,12.20
2023-01-11T16:44:33.367Z,12.10
2023-01-11T16:47:18.703Z,12.90
2023-01-11T16:50:09.878Z,12.10
2023-01-11T16:52:58.925Z,13.70
2023-01-11T16:55:30.302Z,12.80
2023-01-11T16:58:01.189Z,17.30
2023-01-11T17:00:38.278Z,14.60
2023-01-11T17:03:26.471Z,15.30
2023-01-11T17:05:56.372Z,15.10
2023-01-11T17:08:26.475Z,13.70
2023-01-11T17:10:56.911Z,11.80
2023-01-11T17:13:52.731Z,13.60
2023-01-11T17:16:29.324Z,16.60
2023-01-11T17:19:00.313Z,13.90
2023-01-11T17:21:30.096Z,15.10
2023-01-11T17:24:00.601Z,17.00
2023-01-11T17:26:31.592Z,15.00
2023-01-11T17:29:00.811Z,13.50
2023-01-11T17:31:32.149Z,15.30
2023-01-11T17:34:16.563Z,16.90
2023-01-11T17:36:45.914Z,15.90
2023-01-11T17:39:28.949Z,15.90
2023-01-11T17:42:17.398Z,13.50
2023-01-11T17:45:05.917Z,14.50
2023-01-11T17:47:34.964Z,19.30
2023-01-11T17:50:03.866Z,16.20
2023-01-11T17:52:38.960Z,14.60
2023-01-11T17:55:18.296Z,16.50
2023-01-11T17:58:06.118Z,13.60
2023-01-11T18:00:34.894Z,12.20
2023-01-11T18:03:15.879Z,15.20
2023-01-11T18:05:45.016Z,15.50
2023-01-11T18:08:19.179Z,15.60
2023-01-11T18:10:49.829Z,19.40
2023-01-11T18:13:31.391Z,16.20
2023-01-11T18:16:00.595Z,16.30
2023-01-11T18:18:41.765Z,16.40
2023-01-11T18:21:25.920Z,12.90
2023-01-11T18:24:10.170Z,16.60
2023-01-11T18:26:40.504Z,14.20
2023-01-11T18:29:44.612Z,13.40
2023-01-11T18:32:14.040Z,12.00
2023-01-11T18:34:44.232Z,15.00
2023-01-11T18:37:13.281Z,14.80
2023-01-11T18:39:42.892Z,12.90
2023-01-11T18:42:15.435Z,14.20
2023-01-11T18:44:45.998Z,13.60
2023-01-11T18:47:16.159Z,13.40
2023-01-11T18:49:45.317Z,13.70
2023-01-11T18:52:14.360Z,13.10
2023-01-11T18:54:43.155Z,14.50
2023-01-11T18:57:11.941Z,14.70
2023-01-11T18:59:40.717Z,14.80
2023-01-11T19:04:55.156Z,14.50
2023-01-11T19:07:25.122Z,16.00
2023-01-11T19:09:59.300Z,17.30
2023-01-11T19:12:28.229Z,14.40
2023-01-11T19:14:57.096Z,14.90
2023-01-11T19:17:28.732Z,14.10
2023-01-11T19:19:57.498Z,16.20
2023-01-11T19:22:26.850Z,18.40
2023-01-11T19:24:55.863Z,15.70
2023-01-11T19:27:24.965Z,17.80
2023-01-11T19:29:54.002Z,16.40
2023-01-11T19:32:25.183Z,16.10
2023-01-11T19:34:58.019Z,15.50
2023-01-11T19:39:56.299Z,16.00
2023-01-11T19:42:25.058Z,16.90
2023-01-11T19:44:54.855Z,17.50
2023-01-11T19:47:23.635Z,16.20
2023-01-11T19:49:56.399Z,18.30
2023-01-11T19:52:25.472Z,16.30
2023-01-11T19:54:55.123Z,17.80
2023-01-11T19:57:24.012Z,17.70
2023-01-11T19:59:52.788Z,13.60
2023-01-11T20:02:22.009Z,17.40
2023-01-11T20:04:50.832Z,17.50
2023-01-11T20:07:20.493Z,18.50
2023-01-11T20:09:49.170Z,16.90
2023-01-11T20:12:17.983Z,21.80
2023-01-11T20:14:46.760Z,18.30
2023-01-11T20:17:20.925Z,18.20
2023-01-11T20:19:54.546Z,21.10
2023-01-11T20:22:24.129Z,18.20
2023-01-11T20:24:52.791Z,20.40
2023-01-11T20:27:21.824Z,20.00
2023-01-11T20:29:50.559Z,18.00
2023-01-11T20:32:39.932Z,18.90
2023-01-11T20:35:08.474Z,19.90
2023-01-11T20:37:37.173Z,18.70
2023-01-11T20:40:06.104Z,18.20
2023-01-11T20:42:34.885Z,20.50
2023-01-11T20:45:03.764Z,19.00
2023-01-11T20:47:32.843Z,19.80
2023-01-11T20:50:01.522Z,19.00
2023-01-11T20:52:30.625Z,21.10
2023-01-11T20:54:59.424Z,19.50
2023-01-11T20:57:29.441Z,17.10
2023-01-11T20:59:58.233Z,20.00
2023-01-11T21:02:27.013Z,18.90
2023-01-11T21:04:57.075Z,16.30
2023-01-11T21:07:25.813Z,17.40
2023-01-11T21:09:54.506Z,19.70
2023-01-11T21:12:23.251Z,20.40
2023-01-11T21:14:51.943Z,16.20
2023-01-11T21:17:21.085Z,19.50
2023-01-11T21:19:50.537Z,15.70
2023-01-11T21:22:19.470Z,18.80
2023-01-11T21:24:48.433Z,19.20
2023-01-11T21:27:17.166Z,15.80
2023-01-11T21:29:45.907Z,20.80
2023-01-11T21:32:14.558Z,15.50
2023-01-11T21:34:43.299Z,20.00
2023-01-11T21:37:12.051Z,15.60
2023-01-11T21:39:40.783Z,15.70
2023-01-11T21:42:09.535Z,15.60
2023-01-11T21:44:38.328Z,16.90
2023-01-11T21:47:07.062Z,17.30
2023-01-11T21:49:35.919Z,16.20
2023-01-11T21:52:04.650Z,15.20
2023-01-11T21:54:33.577Z,17.80
2023-01-11T21:57:02.593Z,17.20
2023-01-11T21:59:33.628Z,15.50
2023-01-11T22:02:02.393Z,12.80
2023-01-11T22:04:31.079Z,15.10
2023-01-11T22:07:00.436Z,15.80
2023-01-11T22:09:29.487Z,15.40
2023-01-11T22:11:58.580Z,15.30
2023-01-11T22:14:27.408Z,15.50
2023-01-11T22:16:56.445Z,17.90
2023-01-11T22:19:25.114Z,14.60
2023-01-11T22:21:53.801Z,15.50
2023-01-11T22:24:22.601Z,14.20
2023-01-11T22:26:51.365Z,13.60
2023-01-11T22:29:20.192Z,13.70
2023-01-11T22:31:55.052Z,15.50
2023-01-11T22:34:24.285Z,12.50
2023-01-11T22:36:54.251Z,16.50
2023-01-11T22:39:24.409Z,14.80
2023-01-11T22:41:53.086Z,14.40
2023-01-11T22:44:21.783Z,13.30
2023-01-11T22:46:50.585Z,13.50
2023-01-11T22:49:19.756Z,20.70
2023-01-11T22:51:48.586Z,14.30
2023-01-11T22:54:17.385Z,13.80
2023-01-11T22:56:46.082Z,14.60
2023-01-11T22:59:14.763Z,13.20
2023-01-11T23:01:43.495Z,13.00
2023-01-11T23:04:13.355Z,12.90
2023-01-11T23:06:43.042Z,16.30
2023-01-11T23:09:16.004Z,15.10
2023-01-11T23:12:04.154Z,12.80
2023-01-11T23:14:33.273Z,13.90
2023-01-11T23:17:06.992Z,16.40
2023-01-11T23:19:36.626Z,12.30
2023-01-11T23:22:05.696Z,13.50
2023-01-11T23:24:35.491Z,14.10
2023-01-11T23:27:04.640Z,13.20
2023-01-11T23:29:33.598Z,13.40
2023-01-11T23:32:02.427Z,11.10
2023-01-11T23:34:31.167Z,13.00
2023-01-11T23:37:00.026Z,12.10
2023-01-11T23:39:28.874Z,13.30
2023-01-11T23:42:16.317Z,13.80
2023-01-11T23:44:46.873Z,11.90
2023-01-11T23:47:21.823Z,14.10
2023-01-11T23:49:51.602Z,13.20
2023-01-11T23:52:21.179Z,14.10
2023-01-11T23:54:49.904Z,13.80
2023-01-11T23:57:19.137Z,16.70
2023-01-11T23:59:47.900Z,15.10
